createdAt,value
2023-04-19T00:00:12.220Z,10.43
2023-04-19T00:00:54.109Z,9.68
2023-04-19T00:01:35.839Z,10.38
2023-04-19T00:02:18.535Z,9.68
2023-04-19T00:03:01.148Z,9.88
2023-04-19T00:03:43.210Z,10.20
2023-04-19T00:04:25.488Z,8.30
2023-04-19T00:05:07.938Z,9.63
2023-04-19T00:05:49.583Z,9.27
2023-04-19T00:06:31.852Z,9.52
2023-04-19T00:07:13.568Z,9.73
2023-04-19T00:07:55.365Z,9.30
2023-04-19T00:08:37.005Z,9.77
2023-04-19T00:09:18.708Z,9.20
2023-04-19T00:10:00.519Z,9.07
2023-04-19T00:10:42.204Z,9.77
2023-04-19T00:11:24.649Z,10.23
2023-04-19T00:12:06.404Z,9.95
2023-04-19T00:12:48.056Z,10.68
2023-04-19T00:13:29.675Z,11.07
2023-04-19T00:14:11.428Z,9.63
2023-04-19T00:14:53.137Z,9.93
2023-04-19T00:15:35.068Z,9.50
2023-04-19T00:16:17.234Z,10.55
2023-04-19T00:16:59.008Z,9.80
2023-04-19T00:17:40.933Z,10.88
2023-04-19T00:18:22.696Z,10.10
2023-04-19T00:19:04.398Z,10.38
2023-04-19T00:19:46.136Z,9.93
2023-04-19T00:20:27.803Z,10.10
2023-04-19T00:21:09.545Z,9.70
2023-04-19T00:21:51.290Z,9.48
2023-04-19T00:22:32.922Z,9.68
2023-04-19T00:23:14.563Z,10.10
2023-04-19T00:23:56.255Z,10.20
2023-04-19T00:24:37.850Z,9.80
2023-04-19T00:25:19.541Z,9.63
2023-04-19T00:26:04.652Z,9.48
2023-04-19T00:26:46.302Z,9.43
2023-04-19T00:27:28.139Z,9.35
2023-04-19T00:28:09.825Z,9.52
2023-04-19T00:28:51.553Z,9.52
2023-04-19T00:29:33.209Z,8.52
2023-04-19T00:30:14.877Z,9.18
2023-04-19T00:30:57.317Z,10.00
2023-04-19T00:31:39.950Z,10.15
2023-04-19T00:32:21.715Z,10.68
2023-04-19T00:33:03.682Z,9.80
2023-04-19T00:33:45.450Z,9.70
2023-04-19T00:34:27.166Z,10.15
2023-04-19T00:35:10.915Z,10.48
2023-04-19T00:35:52.613Z,9.75
2023-04-19T00:36:38.364Z,9.48
2023-04-19T00:37:21.741Z,9.40
2023-04-19T00:38:03.471Z,9.23
2023-04-19T00:38:45.125Z,10.38
2023-04-19T00:39:26.813Z,9.93
2023-04-19T00:40:09.218Z,10.10
2023-04-19T00:40:51.812Z,9.35
2023-04-19T00:41:33.542Z,9.43
2023-04-19T00:42:15.326Z,9.85
2023-04-19T00:42:57.004Z,9.65
2023-04-19T00:43:39.040Z,9.57
2023-04-19T00:44:21.668Z,9.80
2023-04-19T00:45:03.758Z,10.07
2023-04-19T00:45:49.743Z,9.27
2023-04-19T00:46:31.705Z,9.43
2023-04-19T00:47:14.724Z,9.48
2023-04-19T00:47:56.559Z,9.60
2023-04-19T00:48:38.536Z,9.77
2023-04-19T00:49:22.432Z,9.75
2023-04-19T00:50:05.917Z,9.82
2023-04-19T00:50:47.864Z,10.43
2023-04-19T00:51:29.867Z,9.70
2023-04-19T00:52:12.748Z,9.60
2023-04-19T00:52:56.215Z,9.88
2023-04-19T00:53:40.624Z,9.40
2023-04-19T00:54:23.347Z,8.98
2023-04-19T00:55:05.643Z,9.73
2023-04-19T00:55:47.792Z,9.55
2023-04-19T00:56:30.330Z,9.20
2023-04-19T00:57:12.246Z,9.73
2023-04-19T00:57:54.400Z,9.68
2023-04-19T00:58:38.577Z,7.97
2023-04-19T00:59:20.305Z,9.02
2023-04-19T01:00:02.472Z,8.30
2023-04-19T01:00:45.937Z,8.88
2023-04-19T01:01:27.858Z,9.00
2023-04-19T01:02:10.186Z,9.43
2023-04-19T01:02:52.473Z,9.55
2023-04-19T01:03:35.059Z,9.32
2023-04-19T01:04:17.453Z,9.30
2023-04-19T01:05:01.965Z,8.85
2023-04-19T01:05:43.623Z,8.68
2023-04-19T01:06:29.976Z,8.57
2023-04-19T01:07:11.624Z,8.65
2023-04-19T01:07:53.299Z,9.07
2023-04-19T01:08:37.469Z,9.45
2023-04-19T01:09:19.097Z,9.25
2023-04-19T01:10:00.833Z,8.68
2023-04-19T01:10:42.409Z,9.23
2023-04-19T01:11:24.754Z,9.27
2023-04-19T01:12:06.369Z,8.90
2023-04-19T01:12:47.956Z,8.40
2023-04-19T01:13:29.637Z,8.93
2023-04-19T01:14:11.289Z,8.55
2023-04-19T01:14:53.023Z,8.93
2023-04-19T01:15:35.852Z,9.13
2023-04-19T01:16:17.673Z,9.35
2023-04-19T01:16:59.283Z,8.95
2023-04-19T01:17:42.193Z,8.60
2023-04-19T01:18:29.322Z,8.90
2023-04-19T01:19:11.656Z,8.60
2023-04-19T01:20:03.821Z,8.95
2023-04-19T01:20:45.612Z,8.85
2023-04-19T01:21:29.350Z,9.02
2023-04-19T01:22:16.659Z,9.05
2023-04-19T01:22:58.332Z,8.10
2023-04-19T01:23:40.372Z,8.70
2023-04-19T01:24:22.050Z,8.77
2023-04-19T01:25:05.284Z,8.23
2023-04-19T01:25:47.666Z,8.02
2023-04-19T01:26:29.303Z,8.13
2023-04-19T01:27:11.427Z,8.35
2023-04-19T01:27:53.072Z,8.77
2023-04-19T01:28:34.752Z,8.13
2023-04-19T01:29:17.721Z,7.68
2023-04-19T01:30:00.938Z,7.75
2023-04-19T01:30:42.968Z,7.57
2023-04-19T01:31:24.611Z,7.97
2023-04-19T01:32:06.203Z,7.85
2023-04-19T01:32:47.858Z,7.60
2023-04-19T01:33:29.642Z,7.40
2023-04-19T01:34:11.374Z,7.60
2023-04-19T01:34:53.593Z,7.88
2023-04-19T01:35:35.260Z,8.02
2023-04-19T01:36:16.861Z,7.45
2023-04-19T01:36:58.448Z,6.95
2023-04-19T01:37:40.161Z,7.43
2023-04-19T01:38:24.874Z,7.40
2023-04-19T01:39:06.499Z,7.22
2023-04-19T01:39:48.107Z,8.18
2023-04-19T01:40:29.701Z,7.78
2023-04-19T01:41:12.657Z,8.25
2023-04-19T01:41:54.426Z,7.93
2023-04-19T01:42:36.012Z,8.50
2023-04-19T01:43:18.799Z,7.88
2023-04-19T01:44:00.946Z,7.00
2023-04-19T01:44:42.627Z,7.70
2023-04-19T01:45:24.349Z,7.10
2023-04-19T01:46:06.078Z,6.97
2023-04-19T01:46:47.707Z,7.68
2023-04-19T01:47:29.412Z,7.30
2023-04-19T01:48:13.589Z,7.47
2023-04-19T01:48:55.218Z,7.20
2023-04-19T01:49:37.058Z,7.60
2023-04-19T01:50:18.813Z,7.68
2023-04-19T01:51:00.529Z,7.05
2023-04-19T01:51:42.166Z,6.75
2023-04-19T01:52:23.719Z,6.90
2023-04-19T01:53:05.368Z,6.43
2023-04-19T01:53:53.358Z,6.55
2023-04-19T01:54:34.965Z,6.93
2023-04-19T01:55:16.620Z,6.88
2023-04-19T01:55:58.269Z,7.30
2023-04-19T01:56:41.263Z,7.53
2023-04-19T01:57:22.901Z,7.28
2023-04-19T01:58:04.538Z,7.10
2023-04-19T01:58:46.174Z,7.30
2023-04-19T01:59:28.183Z,6.72
2023-04-19T02:00:12.827Z,6.88
2023-04-19T02:00:57.181Z,6.78
2023-04-19T02:01:38.924Z,6.72
2023-04-19T02:02:20.632Z,6.88
2023-04-19T02:03:02.626Z,6.90
2023-04-19T02:03:44.787Z,6.60
2023-04-19T02:04:26.540Z,7.10
2023-04-19T02:05:08.894Z,7.55
2023-04-19T02:05:50.574Z,6.88
2023-04-19T02:06:32.191Z,7.32
2023-04-19T02:07:13.835Z,7.07
2023-04-19T02:07:55.593Z,7.53
2023-04-19T02:08:37.264Z,6.70
2023-04-19T02:09:19.339Z,6.68
2023-04-19T02:10:01.704Z,6.80
2023-04-19T02:10:43.437Z,7.35
2023-04-19T02:11:25.089Z,6.90
2023-04-19T02:12:06.946Z,6.93
2023-04-19T02:12:48.577Z,6.90
2023-04-19T02:13:30.920Z,6.90
2023-04-19T02:14:12.900Z,7.18
2023-04-19T02:14:58.130Z,6.40
2023-04-19T02:15:46.016Z,6.93
2023-04-19T02:16:27.763Z,7.50
2023-04-19T02:17:09.420Z,6.50
2023-04-19T02:17:51.035Z,6.53
2023-04-19T02:18:40.671Z,7.22
2023-04-19T02:19:22.464Z,6.45
2023-04-19T02:20:05.848Z,6.88
2023-04-19T02:20:47.503Z,7.25
2023-04-19T02:21:29.372Z,7.18
2023-04-19T02:22:10.990Z,6.60
2023-04-19T02:22:54.264Z,6.65
2023-04-19T02:23:36.358Z,6.72
2023-04-19T02:24:18.057Z,7.25
2023-04-19T02:25:00.870Z,7.10
2023-04-19T02:25:46.859Z,7.47
2023-04-19T02:26:29.546Z,6.28
2023-04-19T02:27:11.531Z,6.88
2023-04-19T02:27:53.764Z,6.50
2023-04-19T02:28:35.748Z,6.85
2023-04-19T02:29:17.980Z,6.97
2023-04-19T02:29:59.665Z,6.85
2023-04-19T02:30:41.299Z,6.82
2023-04-19T02:31:23.311Z,6.57
2023-04-19T02:32:06.968Z,6.70
2023-04-19T02:32:49.472Z,6.85
2023-04-19T02:33:31.173Z,6.85
2023-04-19T02:34:15.690Z,7.97
2023-04-19T02:34:57.453Z,7.70
2023-04-19T02:35:39.110Z,7.72
2023-04-19T02:36:21.290Z,8.50
2023-04-19T02:37:03.457Z,7.10
2023-04-19T02:37:45.311Z,7.10
2023-04-19T02:38:26.912Z,7.05
2023-04-19T02:39:08.872Z,6.75
2023-04-19T02:39:53.491Z,7.00
2023-04-19T02:40:35.971Z,7.15
2023-04-19T02:41:17.774Z,7.10
2023-04-19T02:41:59.436Z,6.70
2023-04-19T02:42:41.704Z,7.25
2023-04-19T02:43:23.346Z,6.80
2023-04-19T02:44:05.491Z,7.30
2023-04-19T02:44:47.056Z,6.85
2023-04-19T02:45:29.742Z,6.82
2023-04-19T02:46:11.408Z,6.85
2023-04-19T02:46:53.800Z,6.78
2023-04-19T02:47:35.713Z,7.15
2023-04-19T02:48:17.474Z,6.60
2023-04-19T02:49:00.808Z,6.70
2023-04-19T02:49:42.690Z,6.28
2023-04-19T02:50:30.060Z,6.93
2023-04-19T02:51:17.774Z,7.40
2023-04-19T02:51:59.530Z,5.95
2023-04-19T02:52:41.158Z,6.18
2023-04-19T02:53:22.831Z,7.40
2023-04-19T02:54:05.460Z,6.90
2023-04-19T02:54:47.307Z,6.82
2023-04-19T02:55:28.992Z,6.50
2023-04-19T02:56:20.013Z,6.93
2023-04-19T02:57:02.075Z,6.50
2023-04-19T02:57:43.715Z,6.85
2023-04-19T02:58:26.831Z,6.53
2023-04-19T02:59:14.436Z,6.38
2023-04-19T02:59:56.744Z,6.15
2023-04-19T03:00:38.439Z,6.45
2023-04-19T03:01:24.970Z,6.10
2023-04-19T03:02:06.615Z,7.13
2023-04-19T03:02:48.459Z,7.72
2023-04-19T03:03:30.402Z,7.00
2023-04-19T03:04:13.030Z,7.03
2023-04-19T03:04:55.466Z,6.60
2023-04-19T03:05:37.115Z,6.53
2023-04-19T03:06:18.895Z,6.82
2023-04-19T03:07:00.508Z,6.60
2023-04-19T03:07:44.458Z,6.35
2023-04-19T03:08:26.462Z,6.32
2023-04-19T03:09:08.023Z,6.07
2023-04-19T03:09:49.662Z,6.18
2023-04-19T03:10:33.005Z,6.55
2023-04-19T03:11:16.416Z,6.75
2023-04-19T03:11:58.051Z,6.50
2023-04-19T03:12:39.708Z,7.32
2023-04-19T03:13:21.349Z,7.03
2023-04-19T03:14:03.210Z,6.88
2023-04-19T03:14:45.284Z,7.38
2023-04-19T03:15:27.264Z,6.68
2023-04-19T03:16:09.603Z,5.97
2023-04-19T03:16:52.214Z,7.28
2023-04-19T03:17:33.963Z,6.60
2023-04-19T03:18:17.238Z,6.32
2023-04-19T03:18:58.896Z,6.75
2023-04-19T03:19:44.248Z,6.93
2023-04-19T03:20:26.675Z,6.85
2023-04-19T03:21:09.513Z,6.65
2023-04-19T03:22:05.758Z,7.00
2023-04-19T03:22:49.230Z,7.53
2023-04-19T03:23:31.024Z,6.15
2023-04-19T03:24:15.130Z,7.10
2023-04-19T03:25:02.309Z,7.18
2023-04-19T03:25:44.316Z,7.10
2023-04-19T03:26:38.143Z,7.15
2023-04-19T03:27:19.856Z,6.63
2023-04-19T03:28:06.008Z,6.57
2023-04-19T03:29:14.267Z,6.20
2023-04-19T03:30:11.528Z,6.60
2023-04-19T03:30:55.856Z,6.57
2023-04-19T03:31:37.627Z,6.97
2023-04-19T03:32:19.484Z,6.45
2023-04-19T03:33:01.368Z,7.15
2023-04-19T03:33:43.139Z,6.70
2023-04-19T03:34:27.140Z,6.68
2023-04-19T03:35:09.860Z,6.90
2023-04-19T03:35:51.441Z,7.13
2023-04-19T03:36:32.990Z,7.38
2023-04-19T03:37:14.597Z,7.38
2023-04-19T03:37:57.120Z,7.68
2023-04-19T03:38:38.783Z,7.30
2023-04-19T03:39:23.953Z,7.00
2023-04-19T03:40:10.434Z,7.13
2023-04-19T03:40:56.366Z,7.00
2023-04-19T03:41:40.178Z,6.88
2023-04-19T03:42:42.082Z,7.05
2023-04-19T03:43:32.768Z,6.63
2023-04-19T03:44:14.650Z,7.13
2023-04-19T03:44:58.890Z,6.88
2023-04-19T03:45:42.011Z,7.35
2023-04-19T03:46:24.423Z,6.68
2023-04-19T03:47:06.160Z,7.32
2023-04-19T03:47:54.524Z,7.20
2023-04-19T03:48:36.243Z,6.78
2023-04-19T03:49:17.919Z,7.40
2023-04-19T03:50:04.546Z,6.97
2023-04-19T03:50:47.953Z,6.68
2023-04-19T03:51:32.189Z,6.20
2023-04-19T03:52:13.766Z,6.68
2023-04-19T03:52:55.863Z,6.97
2023-04-19T03:53:37.556Z,6.80
2023-04-19T03:54:19.573Z,6.28
2023-04-19T03:55:01.225Z,6.47
2023-04-19T03:55:54.055Z,6.68
2023-04-19T03:56:36.539Z,6.72
2023-04-19T03:57:18.475Z,6.10
2023-04-19T03:58:00.115Z,6.70
2023-04-19T03:58:59.186Z,6.93
2023-04-19T03:59:41.986Z,6.40
2023-04-19T04:00:24.495Z,6.82
2023-04-19T04:01:21.290Z,6.40
2023-04-19T04:02:04.472Z,6.50
2023-04-19T04:02:46.374Z,6.78
2023-04-19T04:03:28.711Z,6.60
2023-04-19T04:04:14.641Z,6.47
2023-04-19T04:04:56.817Z,6.80
2023-04-19T04:05:39.193Z,6.72
2023-04-19T04:06:20.962Z,7.10
2023-04-19T04:07:02.820Z,6.13
2023-04-19T04:07:44.392Z,5.80
2023-04-19T04:08:26.222Z,6.03
2023-04-19T04:09:07.969Z,6.65
2023-04-19T04:09:50.205Z,6.15
2023-04-19T04:10:31.982Z,6.15
2023-04-19T04:11:13.892Z,7.72
2023-04-19T04:11:55.705Z,8.20
2023-04-19T04:12:37.400Z,8.77
2023-04-19T04:13:20.464Z,8.25
2023-04-19T04:14:11.717Z,7.38
2023-04-19T04:14:54.235Z,7.20
2023-04-19T04:15:36.587Z,6.20
2023-04-19T04:16:18.790Z,6.47
2023-04-19T04:17:00.555Z,6.60
2023-04-19T04:17:42.205Z,5.85
2023-04-19T04:18:23.972Z,6.70
2023-04-19T04:19:05.658Z,7.43
2023-04-19T04:19:50.084Z,8.38
2023-04-19T04:20:32.607Z,8.02
2023-04-19T04:21:20.442Z,7.60
2023-04-19T04:22:02.736Z,7.30
2023-04-19T04:22:50.522Z,6.88
2023-04-19T04:23:35.081Z,6.88
2023-04-19T04:24:20.097Z,6.65
2023-04-19T04:25:23.164Z,6.05
2023-04-19T04:26:06.193Z,7.57
2023-04-19T04:27:03.171Z,8.60
2023-04-19T04:27:51.597Z,7.93
2023-04-19T04:28:34.698Z,7.65
2023-04-19T04:29:18.610Z,7.20
2023-04-19T04:30:01.579Z,7.07
2023-04-19T04:30:45.073Z,6.60
2023-04-19T04:31:27.957Z,7.00
2023-04-19T04:32:13.254Z,6.97
2023-04-19T04:32:58.106Z,7.35
2023-04-19T04:33:41.559Z,7.20
2023-04-19T04:34:25.796Z,7.15
2023-04-19T04:35:13.785Z,6.47
2023-04-19T04:36:01.493Z,7.00
2023-04-19T04:36:47.423Z,6.55
2023-04-19T04:37:31.154Z,6.40
2023-04-19T04:38:23.970Z,5.80
2023-04-19T04:39:10.202Z,6.70
2023-04-19T04:39:51.812Z,6.30
2023-04-19T04:40:33.527Z,6.75
2023-04-19T04:41:16.537Z,6.88
2023-04-19T04:41:59.560Z,7.22
2023-04-19T04:42:42.813Z,7.13
2023-04-19T04:43:25.955Z,5.93
2023-04-19T04:44:12.630Z,6.88
2023-04-19T04:44:57.902Z,6.68
2023-04-19T04:45:39.853Z,6.80
2023-04-19T04:46:21.556Z,6.85
2023-04-19T04:47:03.203Z,6.93
2023-04-19T04:47:49.409Z,7.22
2023-04-19T04:48:31.703Z,7.05
2023-04-19T04:49:13.384Z,6.05
2023-04-19T04:49:57.056Z,6.85
2023-04-19T04:50:38.860Z,6.85
2023-04-19T04:51:20.832Z,6.18
2023-04-19T04:52:06.427Z,6.00
2023-04-19T04:52:53.718Z,6.90
2023-04-19T04:53:43.230Z,6.13
2023-04-19T04:54:24.950Z,6.18
2023-04-19T04:55:07.351Z,6.38
2023-04-19T04:55:54.028Z,6.78
2023-04-19T04:56:36.860Z,6.55
2023-04-19T04:57:18.514Z,5.60
2023-04-19T04:58:00.522Z,7.05
2023-04-19T04:58:50.438Z,6.80
2023-04-19T04:59:40.891Z,6.13
2023-04-19T05:00:23.394Z,6.90
2023-04-19T05:01:14.572Z,8.32
2023-04-19T05:01:56.903Z,8.32
2023-04-19T05:02:38.619Z,7.28
2023-04-19T05:03:20.946Z,6.65
2023-04-19T05:04:09.011Z,6.60
2023-04-19T05:04:50.864Z,6.07
2023-04-19T05:05:33.684Z,6.38
2023-04-19T05:06:15.404Z,6.40
2023-04-19T05:06:57.234Z,5.97
2023-04-19T05:07:41.959Z,6.82
2023-04-19T05:08:25.602Z,6.45
2023-04-19T05:09:08.107Z,6.03
2023-04-19T05:09:51.000Z,5.95
2023-04-19T05:10:38.602Z,6.32
2023-04-19T05:11:20.782Z,6.20
2023-04-19T05:12:02.527Z,6.53
2023-04-19T05:12:45.273Z,6.70
2023-04-19T05:13:27.181Z,6.03
2023-04-19T05:14:09.979Z,6.00
2023-04-19T05:14:51.892Z,6.28
2023-04-19T05:15:33.509Z,7.13
2023-04-19T05:16:15.465Z,6.72
2023-04-19T05:16:59.839Z,6.15
2023-04-19T05:17:43.118Z,7.15
2023-04-19T05:18:24.860Z,6.93
2023-04-19T05:19:06.545Z,6.55
2023-04-19T05:19:53.927Z,7.28
2023-04-19T05:20:35.686Z,6.78
2023-04-19T05:21:29.855Z,8.48
2023-04-19T05:22:12.620Z,8.10
2023-04-19T05:22:58.573Z,7.70
2023-04-19T05:23:40.295Z,7.28
2023-04-19T05:24:22.417Z,6.82
2023-04-19T05:25:06.374Z,6.97
2023-04-19T05:25:48.069Z,7.03
2023-04-19T05:26:29.769Z,6.82
2023-04-19T05:27:14.183Z,7.03
2023-04-19T05:27:56.426Z,6.50
2023-04-19T05:28:38.876Z,6.47
2023-04-19T05:29:25.501Z,6.55
2023-04-19T05:30:11.045Z,7.10
2023-04-19T05:30:56.472Z,6.88
2023-04-19T05:31:41.070Z,6.47
2023-04-19T05:32:36.350Z,6.80
2023-04-19T05:33:19.452Z,6.95
2023-04-19T05:34:01.136Z,6.88
2023-04-19T05:34:42.909Z,7.05
2023-04-19T05:35:28.213Z,6.68
2023-04-19T05:36:10.184Z,7.03
2023-04-19T05:36:51.896Z,6.57
2023-04-19T05:37:33.602Z,6.55
2023-04-19T05:38:15.534Z,6.80
2023-04-19T05:38:57.222Z,7.40
2023-04-19T05:39:39.896Z,6.90
2023-04-19T05:40:24.283Z,7.20
2023-04-19T05:41:06.510Z,6.80
2023-04-19T05:41:48.353Z,6.70
2023-04-19T05:42:30.892Z,7.25
2023-04-19T05:43:12.681Z,6.18
2023-04-19T05:43:54.827Z,7.57
2023-04-19T05:44:36.529Z,6.35
2023-04-19T05:45:21.893Z,6.97
2023-04-19T05:46:03.834Z,6.63
2023-04-19T05:46:45.476Z,7.22
2023-04-19T05:47:30.787Z,7.10
2023-04-19T05:48:25.470Z,7.55
2023-04-19T05:49:45.179Z,6.97
2023-04-19T05:50:59.673Z,7.50
2023-04-19T05:52:05.095Z,7.00
2023-04-19T05:52:52.860Z,6.95
2023-04-19T05:53:34.713Z,7.30
2023-04-19T05:54:17.483Z,7.18
2023-04-19T05:55:01.828Z,7.57
2023-04-19T05:55:45.552Z,7.78
2023-04-19T05:56:27.303Z,7.20
2023-04-19T05:57:09.136Z,8.00
2023-04-19T05:57:51.308Z,8.18
2023-04-19T05:58:33.022Z,8.25
2023-04-19T05:59:14.833Z,7.60
2023-04-19T05:59:56.752Z,6.85
2023-04-19T06:00:42.917Z,7.65
2023-04-19T06:01:27.650Z,7.80
2023-04-19T06:02:09.594Z,7.22
2023-04-19T06:02:51.440Z,7.53
2023-04-19T06:03:36.479Z,7.57
2023-04-19T06:04:18.772Z,7.93
2023-04-19T06:05:08.493Z,7.13
2023-04-19T06:05:52.154Z,6.82
2023-04-19T06:06:33.813Z,7.43
2023-04-19T06:07:30.235Z,6.82
2023-04-19T06:08:16.359Z,6.20
2023-04-19T06:08:58.032Z,6.85
2023-04-19T06:09:40.612Z,7.07
2023-04-19T06:10:23.521Z,7.13
2023-04-19T06:11:15.849Z,7.28
2023-04-19T06:12:05.216Z,7.20
2023-04-19T06:12:46.886Z,6.78
2023-04-19T06:13:28.577Z,6.70
2023-04-19T06:14:11.264Z,6.70
2023-04-19T06:14:53.055Z,7.50
2023-04-19T06:15:35.037Z,9.30
2023-04-19T06:16:16.737Z,8.77
2023-04-19T06:16:58.416Z,8.68
2023-04-19T06:17:40.677Z,8.82
2023-04-19T06:18:22.568Z,12.13
2023-04-19T06:19:04.195Z,13.05
2023-04-19T06:19:45.763Z,12.82
2023-04-19T06:20:27.419Z,15.65
2023-04-19T06:21:09.120Z,13.82
2023-04-19T06:21:51.372Z,12.88
2023-04-19T06:22:33.024Z,11.85
2023-04-19T06:23:15.053Z,10.57
2023-04-19T06:23:56.987Z,8.95
2023-04-19T06:24:38.649Z,8.43
2023-04-19T06:25:20.718Z,8.55
2023-04-19T06:26:02.315Z,9.15
2023-04-19T06:26:43.948Z,8.50
2023-04-19T06:27:25.664Z,8.13
2023-04-19T06:28:07.277Z,8.05
2023-04-19T06:28:49.048Z,8.38
2023-04-19T06:29:30.813Z,8.38
2023-04-19T06:30:15.382Z,7.95
2023-04-19T06:30:57.015Z,8.45
2023-04-19T06:31:38.715Z,8.02
2023-04-19T06:32:20.435Z,7.30
2023-04-19T06:33:02.102Z,7.95
2023-04-19T06:33:43.899Z,7.90
2023-04-19T06:34:25.472Z,8.82
2023-04-19T06:35:07.553Z,8.40
2023-04-19T06:35:49.243Z,8.00
2023-04-19T06:36:30.909Z,8.15
2023-04-19T06:37:12.659Z,8.60
2023-04-19T06:37:54.386Z,7.78
2023-04-19T06:38:36.531Z,8.88
2023-04-19T06:39:18.276Z,8.75
2023-04-19T06:40:00.774Z,8.15
2023-04-19T06:40:42.531Z,8.60
2023-04-19T06:41:24.175Z,9.07
2023-04-19T06:42:06.447Z,8.13
2023-04-19T06:42:48.730Z,8.60
2023-04-19T06:43:30.406Z,8.80
2023-04-19T06:44:13.428Z,8.10
2023-04-19T06:44:57.073Z,8.45
2023-04-19T06:45:38.811Z,8.32
2023-04-19T06:46:20.685Z,7.93
2023-04-19T06:47:02.644Z,7.97
2023-04-19T06:47:44.484Z,8.38
2023-04-19T06:48:28.936Z,8.43
2023-04-19T06:49:10.544Z,8.30
2023-04-19T06:49:52.276Z,8.32
2023-04-19T06:50:34.145Z,8.45
2023-04-19T06:51:15.766Z,7.68
2023-04-19T06:52:00.290Z,7.75
2023-04-19T06:52:42.296Z,8.07
2023-04-19T06:53:23.914Z,7.95
2023-04-19T06:54:06.281Z,7.88
2023-04-19T06:54:51.618Z,7.70
2023-04-19T06:55:33.373Z,8.32
2023-04-19T06:56:15.036Z,7.25
2023-04-19T06:56:56.984Z,7.60
2023-04-19T06:57:38.637Z,7.93
2023-04-19T06:58:20.403Z,7.53
2023-04-19T06:59:02.003Z,8.07
2023-04-19T06:59:44.238Z,7.75
2023-04-19T07:00:26.356Z,7.30
2023-04-19T07:01:08.038Z,7.70
2023-04-19T07:01:49.749Z,7.50
2023-04-19T07:02:31.743Z,6.82
2023-04-19T07:03:13.600Z,7.88
2023-04-19T07:03:57.333Z,8.40
2023-04-19T07:04:39.544Z,8.63
2023-04-19T07:05:21.350Z,7.53
2023-04-19T07:06:03.139Z,7.95
2023-04-19T07:06:48.671Z,8.20
2023-04-19T07:07:30.392Z,7.65
2023-04-19T07:08:12.095Z,7.32
2023-04-19T07:08:53.700Z,6.63
2023-04-19T07:09:35.385Z,7.55
2023-04-19T07:10:17.534Z,7.47
2023-04-19T07:10:59.228Z,7.47
2023-04-19T07:11:41.046Z,7.80
2023-04-19T07:12:22.746Z,7.70
2023-04-19T07:13:04.392Z,7.53
2023-04-19T07:13:46.029Z,8.23
2023-04-19T07:14:27.648Z,8.40
2023-04-19T07:15:09.960Z,8.15
2023-04-19T07:15:51.598Z,7.70
2023-04-19T07:16:33.616Z,7.80
2023-04-19T07:17:15.430Z,7.88
2023-04-19T07:17:57.048Z,7.75
2023-04-19T07:18:39.888Z,7.60
2023-04-19T07:19:22.674Z,6.85
2023-04-19T07:20:06.401Z,6.93
2023-04-19T07:20:49.348Z,7.63
2023-04-19T07:21:33.462Z,7.68
2023-04-19T07:22:15.558Z,7.40
2023-04-19T07:22:59.952Z,7.20
2023-04-19T07:23:42.603Z,7.30
2023-04-19T07:24:25.476Z,6.85
2023-04-19T07:25:07.687Z,6.63
2023-04-19T07:25:49.278Z,6.72
2023-04-19T07:26:31.052Z,7.95
2023-04-19T07:27:14.294Z,8.02
2023-04-19T07:27:56.534Z,7.60
2023-04-19T07:28:39.925Z,7.70
2023-04-19T07:29:22.339Z,7.57
2023-04-19T07:30:04.268Z,6.78
2023-04-19T07:30:46.247Z,7.57
2023-04-19T07:31:28.262Z,8.05
2023-04-19T07:32:10.260Z,7.50
2023-04-19T07:32:53.602Z,6.70
2023-04-19T07:33:35.648Z,7.00
2023-04-19T07:34:17.849Z,7.65
2023-04-19T07:34:59.782Z,7.53
2023-04-19T07:35:41.539Z,6.85
2023-04-19T07:36:29.054Z,7.43
2023-04-19T07:37:20.126Z,7.47
2023-04-19T07:38:05.375Z,7.65
2023-04-19T07:38:50.280Z,7.35
2023-04-19T07:39:31.985Z,7.78
2023-04-19T07:40:13.987Z,7.80
2023-04-19T07:40:55.688Z,7.28
2023-04-19T07:41:37.838Z,7.50
2023-04-19T07:42:19.718Z,8.73
2023-04-19T07:43:01.316Z,7.75
2023-04-19T07:43:43.023Z,8.07
2023-04-19T07:44:24.647Z,8.00
2023-04-19T07:45:07.101Z,8.18
2023-04-19T07:45:48.770Z,7.97
2023-04-19T07:46:30.599Z,8.23
2023-04-19T07:47:12.225Z,8.02
2023-04-19T07:47:53.850Z,8.52
2023-04-19T07:48:35.649Z,7.82
2023-04-19T07:49:17.368Z,8.00
2023-04-19T07:49:59.040Z,8.15
2023-04-19T07:50:40.786Z,8.18
2023-04-19T07:51:24.510Z,8.52
2023-04-19T07:52:08.929Z,7.80
2023-04-19T07:52:50.821Z,7.55
2023-04-19T07:53:32.482Z,7.80
2023-04-19T07:54:16.465Z,7.53
2023-04-19T07:54:58.264Z,7.97
2023-04-19T07:55:39.813Z,7.80
2023-04-19T07:56:22.627Z,8.02
2023-04-19T07:57:04.249Z,7.18
2023-04-19T07:57:48.244Z,8.00
2023-04-19T07:58:29.814Z,7.30
2023-04-19T07:59:11.420Z,7.78
2023-04-19T07:59:57.771Z,6.93
2023-04-19T08:00:39.393Z,7.38
2023-04-19T08:01:21.176Z,6.93
2023-04-19T08:02:02.929Z,7.25
2023-04-19T08:02:48.676Z,6.95
2023-04-19T08:03:32.138Z,7.22
2023-04-19T08:04:14.201Z,7.18
2023-04-19T08:04:57.894Z,6.30
2023-04-19T08:05:39.766Z,7.15
2023-04-19T08:06:21.814Z,6.97
2023-04-19T08:07:04.775Z,7.15
2023-04-19T08:07:46.462Z,6.70
2023-04-19T08:08:28.300Z,6.85
2023-04-19T08:09:09.997Z,6.88
2023-04-19T08:09:51.678Z,7.82
2023-04-19T08:10:33.518Z,7.53
2023-04-19T08:11:15.373Z,7.72
2023-04-19T08:11:57.730Z,7.38
2023-04-19T08:12:50.422Z,7.25
2023-04-19T08:13:45.960Z,7.53
2023-04-19T08:14:43.723Z,6.50
2023-04-19T08:16:52.472Z,6.50
2023-04-19T08:17:26.819Z,7.13
2023-04-19T08:18:11.265Z,6.53
2023-04-19T08:18:53.046Z,6.57
2023-04-19T08:19:34.836Z,6.00
2023-04-19T08:20:17.838Z,7.28
2023-04-19T08:20:59.512Z,7.22
2023-04-19T08:21:41.855Z,6.80
2023-04-19T08:22:23.636Z,6.30
2023-04-19T08:23:14.475Z,6.47
2023-04-19T08:24:02.916Z,6.60
2023-04-19T08:24:44.619Z,6.57
2023-04-19T08:25:28.433Z,7.07
2023-04-19T08:26:10.118Z,6.93
2023-04-19T08:26:54.705Z,6.45
2023-04-19T08:27:36.689Z,6.93
2023-04-19T08:28:22.131Z,7.43
2023-04-19T08:29:03.712Z,6.80
2023-04-19T08:29:45.728Z,7.38
2023-04-19T08:30:27.549Z,6.57
2023-04-19T08:31:09.250Z,6.95
2023-04-19T08:31:51.030Z,6.60
2023-04-19T08:32:32.701Z,6.40
2023-04-19T08:33:14.496Z,7.60
2023-04-19T08:33:56.997Z,6.90
2023-04-19T08:34:39.805Z,6.43
2023-04-19T08:35:22.105Z,7.45
2023-04-19T08:36:04.113Z,6.75
2023-04-19T08:36:55.784Z,6.60
2023-04-19T08:37:42.592Z,6.88
2023-04-19T08:38:24.198Z,6.80
2023-04-19T08:39:10.363Z,7.20
2023-04-19T08:39:59.578Z,6.63
2023-04-19T08:40:52.274Z,7.07
2023-04-19T08:41:34.911Z,6.38
2023-04-19T08:42:28.853Z,6.97
2023-04-19T08:43:18.997Z,6.28
2023-04-19T08:44:02.914Z,6.38
2023-04-19T08:45:05.655Z,7.07
2023-04-19T08:45:51.626Z,7.32
2023-04-19T08:46:33.562Z,7.10
2023-04-19T08:47:26.960Z,6.55
2023-04-19T08:48:11.852Z,6.40
2023-04-19T08:48:57.217Z,6.60
2023-04-19T08:49:43.841Z,6.60
2023-04-19T08:50:33.284Z,6.30
2023-04-19T08:51:17.647Z,12.10
2023-04-19T08:51:59.961Z,10.15
2023-04-19T08:52:54.030Z,7.50
2023-04-19T08:53:39.858Z,6.95
2023-04-19T08:54:22.316Z,6.70
2023-04-19T08:55:05.547Z,6.15
2023-04-19T08:56:06.988Z,5.72
2023-04-19T08:56:50.085Z,5.90
2023-04-19T08:57:46.667Z,6.75
2023-04-19T08:58:52.090Z,6.45
2023-04-19T09:00:06.669Z,6.07
2023-04-19T09:01:05.181Z,5.80
2023-04-19T09:01:49.209Z,6.75
2023-04-19T09:03:16.664Z,6.15
2023-04-19T09:04:20.813Z,5.70
2023-04-19T09:05:21.771Z,6.18
2023-04-19T09:06:23.560Z,5.47
2023-04-19T09:07:25.648Z,5.78
2023-04-19T09:08:36.584Z,5.28
2023-04-19T09:09:45.724Z,5.53
2023-04-19T09:11:23.644Z,6.25
2023-04-19T09:12:40.339Z,8.38
2023-04-19T09:13:32.418Z,8.73
2023-04-19T09:14:29.698Z,6.93
2023-04-19T09:15:19.124Z,5.57
2023-04-19T09:16:07.906Z,5.55
2023-04-19T09:16:58.584Z,5.55
2023-04-19T09:18:09.383Z,5.60
2023-04-19T09:19:08.557Z,5.80
2023-04-19T09:20:12.313Z,5.93
2023-04-19T09:20:59.441Z,5.93
2023-04-19T09:21:46.839Z,5.63
2023-04-19T09:23:00.884Z,5.75
2023-04-19T09:23:52.327Z,5.53
2023-04-19T09:26:22.245Z,6.07
2023-04-19T09:27:07.843Z,6.82
2023-04-19T09:27:58.517Z,7.45
2023-04-19T09:28:57.994Z,8.35
2023-04-19T09:29:46.557Z,7.57
2023-04-19T09:30:58.164Z,7.97
2023-04-19T09:32:01.688Z,8.00
2023-04-19T09:32:48.264Z,8.23
2023-04-19T09:33:40.615Z,7.93
2023-04-19T09:34:24.022Z,8.43
2023-04-19T09:35:07.148Z,7.80
2023-04-19T09:35:49.624Z,8.30
2023-04-19T09:36:32.925Z,7.20
2023-04-19T09:37:21.530Z,8.68
2023-04-19T09:38:15.307Z,9.35
2023-04-19T09:38:58.218Z,8.15
2023-04-19T09:39:39.769Z,8.00
2023-04-19T09:40:23.022Z,6.85
2023-04-19T09:41:08.831Z,6.97
2023-04-19T09:41:54.809Z,6.53
2023-04-19T09:44:44.521Z,7.53
2023-04-19T09:46:05.786Z,7.13
2023-04-19T09:46:52.466Z,6.63
2023-04-19T09:47:35.085Z,7.00
2023-04-19T09:48:16.720Z,6.60
2023-04-19T09:49:24.654Z,7.30
2023-04-19T09:50:22.669Z,7.80
2023-04-19T09:51:07.689Z,8.25
2023-04-19T09:51:54.216Z,8.50
2023-04-19T09:52:36.857Z,8.60
2023-04-19T09:53:19.767Z,7.60